createdAt,value
2022-12-20T00:00:41.425Z,99.99
2022-12-20T00:01:41.801Z,99.99
2022-12-20T00:02:42.121Z,99.99
2022-12-20T00:03:42.587Z,99.99
2022-12-20T00:04:42.797Z,99.99
2022-12-20T00:05:43.726Z,99.99
2022-12-20T00:06:44.752Z,99.99
2022-12-20T00:07:44.990Z,99.99
2022-12-20T00:08:45.523Z,99.99
2022-12-20T00:09:46.451Z,99.99
2022-12-20T00:10:47.387Z,99.99
2022-12-20T00:11:47.569Z,99.99
2022-12-20T00:12:47.815Z,99.99
2022-12-20T00:13:48.749Z,99.99
2022-12-20T00:14:48.966Z,99.99
2022-12-20T00:15:50.202Z,99.99
2022-12-20T00:16:50.422Z,99.99
2022-12-20T00:17:51.519Z,99.99
2022-12-20T00:18:52.408Z,99.99
2022-12-20T00:19:52.905Z,99.99
2022-12-20T00:20:53.397Z,99.99
2022-12-20T00:21:53.540Z,99.99
2022-12-20T00:22:53.459Z,99.99
2022-12-20T00:23:54.428Z,99.99
2022-12-20T00:24:55.394Z,99.99
2022-12-20T00:25:55.648Z,99.99
2022-12-20T00:26:56.195Z,99.99
2022-12-20T00:27:56.403Z,99.99
2022-12-20T00:28:56.631Z,99.99
2022-12-20T00:29:57.151Z,99.99
2022-12-20T00:30:57.696Z,99.99
2022-12-20T00:31:58.239Z,99.99
2022-12-20T00:32:58.806Z,99.99
2022-12-20T00:33:59.726Z,99.99
2022-12-20T00:35:00.246Z,99.99
2022-12-20T00:36:00.541Z,99.99
2022-12-20T00:37:01.566Z,99.99
2022-12-20T00:38:02.092Z,99.99
2022-12-20T00:39:02.356Z,99.99
2022-12-20T00:40:02.561Z,99.99
2022-12-20T00:41:02.806Z,99.99
2022-12-20T00:42:03.147Z,99.99
2022-12-20T00:43:04.182Z,99.99
2022-12-20T00:44:04.493Z,99.99
2022-12-20T00:45:05.171Z,99.99
2022-12-20T00:46:06.197Z,99.99
2022-12-20T00:47:07.363Z,99.99
2022-12-20T00:48:07.845Z,99.99
2022-12-20T00:49:08.034Z,99.99
2022-12-20T00:50:08.943Z,99.99
2022-12-20T00:51:10.165Z,99.99
2022-12-20T00:52:10.186Z,99.99
2022-12-20T00:53:11.400Z,99.99
2022-12-20T00:54:11.968Z,99.99
2022-12-20T00:55:12.162Z,99.99
2022-12-20T00:56:13.373Z,99.99
2022-12-20T00:57:14.177Z,99.99
2022-12-20T00:58:14.406Z,99.99
2022-12-20T00:59:14.678Z,99.99
2022-12-20T01:00:14.877Z,99.99
2022-12-20T01:01:15.861Z,99.99
2022-12-20T01:02:16.533Z,99.99
2022-12-20T01:03:16.865Z,99.99
2022-12-20T01:04:16.637Z,99.99
2022-12-20T01:05:17.066Z,99.99
2022-12-20T01:06:17.694Z,99.99
2022-12-20T01:07:18.950Z,99.99
2022-12-20T01:08:19.442Z,99.99
2022-12-20T01:09:19.724Z,99.99
2022-12-20T01:10:20.241Z,99.99
2022-12-20T01:11:20.169Z,99.99
2022-12-20T01:12:20.608Z,99.99
2022-12-20T01:13:21.833Z,99.99
2022-12-20T01:14:22.803Z,99.99
2022-12-20T01:15:23.442Z,99.99
2022-12-20T01:16:23.863Z,99.99
2022-12-20T01:17:24.158Z,99.99
2022-12-20T01:18:25.137Z,99.99
2022-12-20T01:19:25.641Z,99.99
2022-12-20T01:20:26.569Z,99.99
2022-12-20T01:21:27.483Z,99.99
2022-12-20T01:22:27.580Z,99.99
2022-12-20T01:23:28.654Z,99.99
2022-12-20T01:24:28.612Z,99.99
2022-12-20T01:25:31.097Z,99.99
2022-12-20T01:26:29.157Z,99.99
2022-12-20T01:27:29.790Z,99.99
2022-12-20T01:28:30.744Z,99.99
2022-12-20T01:29:31.693Z,99.99
2022-12-20T01:30:31.609Z,99.99
2022-12-20T01:31:32.432Z,99.99
2022-12-20T01:32:32.315Z,99.99
2022-12-20T01:33:33.013Z,99.99
2022-12-20T01:34:33.666Z,99.99
2022-12-20T01:35:34.883Z,99.99
2022-12-20T01:36:35.131Z,99.99
2022-12-20T01:37:35.406Z,99.99
2022-12-20T01:38:35.655Z,99.99
2022-12-20T01:39:36.275Z,99.99
2022-12-20T01:40:37.211Z,99.99
2022-12-20T01:41:37.127Z,99.99
2022-12-20T01:42:37.230Z,99.99
2022-12-20T01:43:37.443Z,99.99
2022-12-20T01:44:37.860Z,99.99
2022-12-20T01:45:38.491Z,99.99
2022-12-20T01:46:39.176Z,99.99
2022-12-20T01:47:39.679Z,99.99
2022-12-20T01:48:39.629Z,99.99
2022-12-20T01:49:39.881Z,99.99
2022-12-20T01:50:41.113Z,99.99
2022-12-20T01:51:41.039Z,99.99
2022-12-20T01:52:41.794Z,99.99
2022-12-20T01:53:42.047Z,99.99
2022-12-20T01:54:42.301Z,99.99
2022-12-20T01:55:42.527Z,99.99
2022-12-20T01:56:42.752Z,99.99
2022-12-20T01:57:42.985Z,99.99
2022-12-20T01:58:42.932Z,99.99
2022-12-20T01:59:43.464Z,99.99
2022-12-20T02:00:43.729Z,99.99
2022-12-20T02:01:43.915Z,99.99
2022-12-20T02:02:44.701Z,99.99
2022-12-20T02:03:44.589Z,99.99
2022-12-20T02:04:45.125Z,99.99
2022-12-20T02:05:45.627Z,99.99
2022-12-20T02:06:45.837Z,99.99
2022-12-20T02:07:46.788Z,99.99
2022-12-20T02:08:47.044Z,99.99
2022-12-20T02:09:47.490Z,99.99
2022-12-20T02:10:48.152Z,99.99
2022-12-20T02:11:48.829Z,99.99
2022-12-20T02:12:49.596Z,99.99
2022-12-20T02:13:50.512Z,99.99
2022-12-20T02:14:51.203Z,99.99
2022-12-20T02:15:51.459Z,99.99
2022-12-20T02:16:51.498Z,99.99
2022-12-20T02:17:52.447Z,99.99
2022-12-20T02:18:53.005Z,99.99
2022-12-20T02:19:52.923Z,99.99
2022-12-20T02:20:53.864Z,99.99
2022-12-20T02:21:55.068Z,99.99
2022-12-20T02:22:55.417Z,99.99
2022-12-20T02:23:55.922Z,99.99
2022-12-20T02:24:56.926Z,99.99
2022-12-20T02:25:56.849Z,99.99
2022-12-20T02:26:57.365Z,99.99
2022-12-20T02:27:57.591Z,99.99
2022-12-20T02:28:57.806Z,99.99
2022-12-20T02:29:58.033Z,99.99
2022-12-20T02:30:58.246Z,99.99
2022-12-20T02:31:58.607Z,99.99
2022-12-20T02:32:59.125Z,99.99
2022-12-20T02:33:59.829Z,99.99
2022-12-20T02:35:00.458Z,99.99
2022-12-20T02:36:01.392Z,99.99
2022-12-20T02:37:02.596Z,99.99
2022-12-20T02:38:02.810Z,99.99
2022-12-20T02:39:03.007Z,99.99
2022-12-20T02:40:03.536Z,99.99
2022-12-20T02:41:04.044Z,99.99
2022-12-20T02:42:04.260Z,99.99
2022-12-20T02:43:04.912Z,99.99
2022-12-20T02:44:05.120Z,99.99
2022-12-20T02:45:05.793Z,99.99
2022-12-20T02:46:06.134Z,99.99
2022-12-20T02:47:06.852Z,99.99
2022-12-20T02:48:07.796Z,99.99
2022-12-20T02:49:08.728Z,99.99
2022-12-20T02:50:09.219Z,99.99
2022-12-20T02:51:10.133Z,99.99
2022-12-20T02:52:10.792Z,99.99
2022-12-20T02:53:11.554Z,99.99
2022-12-20T02:54:11.804Z,99.99
2022-12-20T02:55:11.958Z,99.99
2022-12-20T02:56:12.887Z,99.99
2022-12-20T02:57:13.389Z,99.99
2022-12-20T02:58:13.309Z,99.99
2022-12-20T02:59:14.534Z,99.99
2022-12-20T03:00:15.130Z,99.99
2022-12-20T03:01:15.498Z,99.99
2022-12-20T03:02:16.727Z,99.99
2022-12-20T03:03:16.852Z,99.99
2022-12-20T03:04:17.711Z,99.99
2022-12-20T03:05:18.253Z,99.99
2022-12-20T03:06:19.182Z,99.99
2022-12-20T03:07:19.797Z,99.99
2022-12-20T03:08:20.528Z,99.99
2022-12-20T03:09:21.195Z,99.99
2022-12-20T03:10:21.833Z,99.99
2022-12-20T03:11:22.368Z,99.99
2022-12-20T03:12:22.768Z,99.99
2022-12-20T03:13:23.477Z,99.99
2022-12-20T03:14:24.432Z,99.99
2022-12-20T03:15:25.454Z,99.99
2022-12-20T03:16:25.746Z,99.99
2022-12-20T03:17:25.945Z,99.99
2022-12-20T03:18:26.933Z,99.99
2022-12-20T03:19:27.584Z,99.99
2022-12-20T03:20:28.215Z,99.99
2022-12-20T03:21:29.122Z,99.99
2022-12-20T03:22:29.328Z,99.99
2022-12-20T03:23:29.746Z,99.99
2022-12-20T03:24:30.006Z,99.99
2022-12-20T03:25:30.263Z,99.99
2022-12-20T03:26:30.966Z,99.99
2022-12-20T03:27:31.641Z,99.99
2022-12-20T03:28:32.887Z,99.99
2022-12-20T03:29:33.611Z,99.99
2022-12-20T03:30:33.882Z,99.99
2022-12-20T03:31:34.418Z,99.99
2022-12-20T03:32:34.757Z,99.99
2022-12-20T03:33:35.513Z,99.99
2022-12-20T03:34:36.488Z,99.99
2022-12-20T03:35:36.736Z,99.99
2022-12-20T03:36:36.955Z,99.99
2022-12-20T03:37:37.616Z,99.99
2022-12-20T03:38:37.822Z,99.99
2022-12-20T03:39:38.315Z,99.99
2022-12-20T03:40:38.562Z,99.99
2022-12-20T03:41:39.490Z,99.99
2022-12-20T03:42:39.765Z,99.99
2022-12-20T03:43:40.573Z,99.99
2022-12-20T03:44:41.640Z,99.99
2022-12-20T03:45:42.481Z,99.99
2022-12-20T03:46:43.063Z,99.99
2022-12-20T03:47:43.179Z,99.99
2022-12-20T03:48:44.423Z,99.99
2022-12-20T03:49:44.673Z,99.99
2022-12-20T03:50:44.877Z,99.99
2022-12-20T03:51:45.799Z,99.99
2022-12-20T03:52:46.743Z,99.99
2022-12-20T03:53:47.107Z,99.99
2022-12-20T03:54:47.623Z,99.99
2022-12-20T03:55:50.808Z,99.99
2022-12-20T03:56:48.728Z,99.99
2022-12-20T03:57:49.670Z,99.99
2022-12-20T03:58:49.902Z,99.99
2022-12-20T03:59:49.926Z,99.99
2022-12-20T04:00:50.897Z,99.99
2022-12-20T04:01:52.359Z,99.99
2022-12-20T04:02:53.416Z,99.99
2022-12-20T04:03:53.999Z,99.99
2022-12-20T04:04:54.852Z,99.99
2022-12-20T04:05:55.052Z,99.99
2022-12-20T04:06:56.285Z,99.99
2022-12-20T04:07:57.224Z,99.99
2022-12-20T04:08:57.174Z,99.99
2022-12-20T04:09:57.656Z,99.99
2022-12-20T04:10:57.922Z,99.99
2022-12-20T04:11:57.837Z,99.99
2022-12-20T04:12:58.793Z,99.99
2022-12-20T04:13:59.157Z,99.99
2022-12-20T04:14:59.230Z,99.99
2022-12-20T04:16:05.842Z,99.99
2022-12-20T04:16:59.995Z,99.99
2022-12-20T04:18:01.219Z,99.99
2022-12-20T04:19:01.435Z,99.99
2022-12-20T04:20:01.680Z,99.99
2022-12-20T04:21:01.676Z,99.99
2022-12-20T04:22:10.124Z,99.99
2022-12-20T04:23:03.332Z,99.99
2022-12-20T04:24:03.419Z,99.99
2022-12-20T04:25:04.627Z,99.99
2022-12-20T04:26:05.190Z,99.99
2022-12-20T04:27:05.715Z,99.99
2022-12-20T04:28:06.362Z,99.99
2022-12-20T04:29:07.603Z,99.99
2022-12-20T04:30:07.498Z,99.99
2022-12-20T04:31:08.840Z,99.99
2022-12-20T04:32:09.082Z,99.99
2022-12-20T04:33:09.358Z,99.99
2022-12-20T04:34:09.661Z,99.99
2022-12-20T04:35:10.889Z,99.99
2022-12-20T04:36:11.096Z,99.99
2022-12-20T04:37:11.760Z,99.99
2022-12-20T04:38:13.009Z,99.99
2022-12-20T04:39:13.254Z,99.99
2022-12-20T04:40:13.460Z,99.99
2022-12-20T04:41:13.423Z,99.99
2022-12-20T04:42:14.637Z,99.99
2022-12-20T04:43:15.589Z,99.99
2022-12-20T04:44:15.734Z,99.99
2022-12-20T04:45:15.928Z,99.99
2022-12-20T04:46:16.770Z,99.99
2022-12-20T04:47:16.898Z,99.99
2022-12-20T04:49:00.195Z,99.99
2022-12-20T04:49:17.515Z,99.99
2022-12-20T04:50:17.909Z,99.99
2022-12-20T04:51:18.255Z,99.99
2022-12-20T04:52:18.767Z,99.99
2022-12-20T04:53:19.284Z,99.99
2022-12-20T04:54:19.334Z,99.99
2022-12-20T04:55:20.578Z,99.99
2022-12-20T04:56:20.529Z,99.99
2022-12-20T04:57:21.240Z,99.99
2022-12-20T04:58:21.908Z,99.99
2022-12-20T04:59:22.132Z,99.99
2022-12-20T05:00:22.838Z,99.99
2022-12-20T05:01:24.382Z,99.99
2022-12-20T05:02:25.115Z,99.99
2022-12-20T05:03:25.680Z,99.99
2022-12-20T05:04:30.128Z,99.99
2022-12-20T05:05:27.319Z,99.99
2022-12-20T05:06:27.981Z,99.99
2022-12-20T05:07:28.908Z,99.99
2022-12-20T05:08:29.862Z,99.99
2022-12-20T05:09:30.803Z,99.99
2022-12-20T05:10:31.742Z,99.99
2022-12-20T05:11:31.992Z,99.99
2022-12-20T05:12:32.358Z,99.99
2022-12-20T05:13:32.737Z,99.99
2022-12-20T05:14:33.217Z,99.99
2022-12-20T05:15:33.890Z,99.99
2022-12-20T05:16:34.448Z,99.99
2022-12-20T05:17:35.174Z,99.99
2022-12-20T05:18:35.823Z,99.99
2022-12-20T05:19:36.129Z,99.99
2022-12-20T05:20:37.396Z,99.99
2022-12-20T05:21:37.602Z,99.99
2022-12-20T05:22:38.106Z,99.99
2022-12-20T05:23:38.315Z,99.99
2022-12-20T05:24:38.752Z,99.99
2022-12-20T05:25:39.402Z,99.99
2022-12-20T05:26:39.967Z,99.99
2022-12-20T05:27:40.603Z,99.99
2022-12-20T05:28:40.805Z,99.99
2022-12-20T05:29:41.770Z,99.99
2022-12-20T05:30:43.020Z,99.99
2022-12-20T05:31:43.868Z,99.99
2022-12-20T05:32:44.092Z,99.99
2022-12-20T05:33:44.336Z,99.99
2022-12-20T05:34:45.410Z,99.99
2022-12-20T05:35:45.692Z,99.99
2022-12-20T05:36:46.644Z,99.99
2022-12-20T05:37:47.869Z,99.99
2022-12-20T05:38:48.534Z,99.99
2022-12-20T05:39:48.995Z,99.99
2022-12-20T05:40:49.915Z,99.99
2022-12-20T05:41:51.280Z,99.99
2022-12-20T05:42:51.543Z,99.99
2022-12-20T05:43:52.750Z,99.99
2022-12-20T05:44:52.809Z,99.99
2022-12-20T05:45:54.031Z,99.99
2022-12-20T05:46:54.626Z,99.99
2022-12-20T05:47:54.999Z,99.99
2022-12-20T05:48:55.362Z,99.99
2022-12-20T05:49:56.315Z,99.99
2022-12-20T05:50:57.186Z,99.99
2022-12-20T05:51:57.808Z,99.99
2022-12-20T05:52:58.012Z,99.99
2022-12-20T05:53:58.583Z,99.99
2022-12-20T05:54:59.089Z,99.99
2022-12-20T05:55:59.784Z,99.99
2022-12-20T05:57:01.048Z,99.99
2022-12-20T05:58:01.712Z,99.99
2022-12-20T05:59:01.941Z,99.99
2022-12-20T06:00:02.324Z,99.99
2022-12-20T06:01:02.978Z,99.99
2022-12-20T06:02:04.155Z,99.99
2022-12-20T06:03:04.901Z,99.99
2022-12-20T06:04:04.924Z,99.99
2022-12-20T06:05:05.218Z,99.99
2022-12-20T06:06:08.747Z,99.99
2022-12-20T06:07:05.278Z,99.99
2022-12-20T06:08:05.778Z,99.99
2022-12-20T06:09:06.489Z,99.99
2022-12-20T06:10:06.731Z,99.99
2022-12-20T06:11:06.659Z,99.99
2022-12-20T06:12:08.057Z,99.99
2022-12-20T06:13:08.693Z,99.99
2022-12-20T06:14:09.329Z,99.99
2022-12-20T06:15:10.207Z,99.99
2022-12-20T06:16:11.316Z,99.99
2022-12-20T06:17:11.493Z,99.99
2022-12-20T06:18:12.172Z,99.99
2022-12-20T06:19:17.661Z,99.99
2022-12-20T06:20:13.605Z,99.99
2022-12-20T06:21:14.146Z,99.99
2022-12-20T06:22:14.826Z,99.99
2022-12-20T06:23:15.416Z,99.99
2022-12-20T06:24:16.374Z,99.99
2022-12-20T06:25:17.079Z,99.99
2022-12-20T06:26:17.783Z,99.99
2022-12-20T06:27:18.027Z,99.99
2022-12-20T06:28:18.645Z,99.99
2022-12-20T06:29:18.872Z,99.99
2022-12-20T06:30:19.816Z,99.99
2022-12-20T06:31:20.264Z,99.99
2022-12-20T06:32:20.779Z,99.99
2022-12-20T06:33:21.727Z,99.99
2022-12-20T06:34:22.642Z,99.99
2022-12-20T06:35:22.944Z,99.99
2022-12-20T06:36:23.615Z,99.99
2022-12-20T06:37:23.819Z,99.99
2022-12-20T06:38:23.754Z,99.99
2022-12-20T06:39:24.120Z,99.99
2022-12-20T06:40:24.364Z,99.99
2022-12-20T06:41:24.572Z,99.99
2022-12-20T06:42:25.537Z,99.99
2022-12-20T06:43:26.186Z,99.99
2022-12-20T06:44:27.420Z,99.99
2022-12-20T06:45:27.873Z,99.99
2022-12-20T06:46:28.470Z,99.99
2022-12-20T06:47:29.005Z,99.99
2022-12-20T06:48:29.661Z,99.99
2022-12-20T06:49:29.609Z,99.99
2022-12-20T06:50:30.590Z,99.99
2022-12-20T06:51:31.827Z,99.99
2022-12-20T06:52:32.076Z,99.99
2022-12-20T06:53:32.728Z,99.99
2022-12-20T06:54:33.372Z,99.99
2022-12-20T06:55:33.706Z,99.99
2022-12-20T06:56:39.345Z,99.99
2022-12-20T06:57:35.736Z,99.99
2022-12-20T06:58:36.675Z,99.99
2022-12-20T06:59:37.627Z,99.99
2022-12-20T07:00:38.140Z,99.99
2022-12-20T07:01:38.941Z,99.99
2022-12-20T07:02:39.859Z,99.99
2022-12-20T07:03:39.942Z,99.99
2022-12-20T07:04:39.600Z,99.99
2022-12-20T07:05:40.679Z,99.99
2022-12-20T07:06:41.212Z,99.99
2022-12-20T07:07:49.515Z,99.99
2022-12-20T07:08:42.020Z,99.99
2022-12-20T07:09:42.734Z,99.99
2022-12-20T07:10:43.042Z,99.99
2022-12-20T07:11:43.645Z,99.99
2022-12-20T07:12:50.915Z,99.99
2022-12-20T07:13:45.180Z,99.99
2022-12-20T07:14:45.672Z,99.99
2022-12-20T07:15:46.003Z,99.99
2022-12-20T07:16:47.642Z,99.99
2022-12-20T07:17:47.511Z,99.99
2022-12-20T07:18:47.714Z,99.99
2022-12-20T07:19:55.728Z,99.99
2022-12-20T07:20:48.963Z,99.99
2022-12-20T07:21:49.917Z,99.99
2022-12-20T07:22:50.479Z,99.99
2022-12-20T07:23:50.447Z,99.99
2022-12-20T07:24:51.122Z,99.99
2022-12-20T07:25:51.545Z,99.99
2022-12-20T07:26:52.064Z,99.99
2022-12-20T07:27:52.048Z,99.99
2022-12-20T07:28:53.120Z,99.99
2022-12-20T07:29:53.765Z,99.99
2022-12-20T07:30:54.713Z,99.99
2022-12-20T07:31:55.901Z,99.99
2022-12-20T07:32:56.445Z,99.99
2022-12-20T07:33:56.673Z,99.99
2022-12-20T07:34:57.324Z,99.99
2022-12-20T07:36:00.297Z,99.99
2022-12-20T07:36:58.553Z,99.99
2022-12-20T07:37:59.518Z,99.99
2022-12-20T07:39:00.819Z,99.99
2022-12-20T07:40:01.227Z,99.99
2022-12-20T07:41:02.215Z,99.99
2022-12-20T07:42:02.905Z,99.99
2022-12-20T07:43:04.048Z,99.99
2022-12-20T07:44:04.411Z,99.99
2022-12-20T07:45:04.352Z,99.99
2022-12-20T07:46:05.866Z,99.99
2022-12-20T07:47:05.572Z,99.99
2022-12-20T07:48:16.067Z,99.99
2022-12-20T07:49:07.403Z,99.99
2022-12-20T07:50:07.701Z,99.99
2022-12-20T07:51:07.650Z,99.99
2022-12-20T07:52:08.947Z,99.99
2022-12-20T07:53:08.991Z,99.99
2022-12-20T07:54:09.685Z,99.99
2022-12-20T07:55:10.747Z,99.99
2022-12-20T07:56:11.455Z,99.99
2022-12-20T07:57:11.795Z,99.99
2022-12-20T07:58:12.335Z,99.99
2022-12-20T07:59:12.531Z,99.99
2022-12-20T08:00:13.759Z,99.99
2022-12-20T08:01:14.965Z,99.99
2022-12-20T08:02:15.257Z,99.99
2022-12-20T08:03:16.124Z,99.99
2022-12-20T08:04:15.881Z,99.99
2022-12-20T08:05:16.100Z,99.99
2022-12-20T08:06:16.307Z,99.99
2022-12-20T08:07:17.556Z,99.99
2022-12-20T08:08:18.225Z,99.99
2022-12-20T08:09:19.140Z,99.99
2022-12-20T08:10:20.516Z,99.99
2022-12-20T08:11:20.855Z,99.99
2022-12-20T08:12:21.816Z,99.99
2022-12-20T08:13:22.069Z,99.99
2022-12-20T08:14:23.019Z,99.99
2022-12-20T08:15:24.043Z,99.99
2022-12-20T08:16:24.972Z,99.99
2022-12-20T08:17:25.851Z,99.99
2022-12-20T08:18:26.523Z,99.99
2022-12-20T08:19:33.412Z,99.99
2022-12-20T08:20:27.614Z,99.99
2022-12-20T08:21:27.842Z,99.99
2022-12-20T08:22:28.087Z,99.99
2022-12-20T08:23:28.731Z,99.99
2022-12-20T08:24:30.079Z,99.99
2022-12-20T08:25:30.891Z,99.99
2022-12-20T08:26:30.513Z,99.99
2022-12-20T08:27:30.730Z,99.99
2022-12-20T08:28:31.282Z,99.99
2022-12-20T08:29:31.490Z,99.99
2022-12-20T08:30:32.931Z,99.99
2022-12-20T08:31:34.597Z,99.99
2022-12-20T08:32:34.260Z,99.99
2022-12-20T08:33:34.482Z,99.99
2022-12-20T08:34:34.696Z,99.99
2022-12-20T08:35:34.660Z,99.99
2022-12-20T08:36:35.686Z,99.99
2022-12-20T08:37:35.941Z,99.99
2022-12-20T08:38:35.898Z,99.99
2022-12-20T08:39:36.096Z,99.99
2022-12-20T08:40:36.779Z,99.99
2022-12-20T08:41:37.345Z,99.99
2022-12-20T08:42:37.581Z,99.99
2022-12-20T08:43:38.189Z,99.99
2022-12-20T08:44:38.328Z,99.99
2022-12-20T08:45:39.532Z,99.99
2022-12-20T08:46:40.633Z,99.99
2022-12-20T08:47:41.053Z,99.99
2022-12-20T08:48:42.028Z,99.99
2022-12-20T08:49:48.226Z,99.99
2022-12-20T08:50:43.241Z,99.99
2022-12-20T08:51:43.652Z,99.99
2022-12-20T08:52:44.565Z,99.99
2022-12-20T08:53:45.781Z,99.99
2022-12-20T08:54:46.711Z,99.99
2022-12-20T08:55:47.620Z,99.99
2022-12-20T08:56:48.683Z,99.99
2022-12-20T08:57:49.668Z,99.99
2022-12-20T08:58:50.649Z,99.99
2022-12-20T08:59:51.635Z,99.99
2022-12-20T09:00:51.855Z,99.99
2022-12-20T09:01:52.757Z,99.99
2022-12-20T09:02:53.803Z,99.99
2022-12-20T09:03:53.995Z,99.99
2022-12-20T09:04:53.709Z,99.99
2022-12-20T09:05:54.199Z,99.99
2022-12-20T09:06:54.932Z,99.99
2022-12-20T09:07:55.917Z,99.99
2022-12-20T09:08:56.413Z,99.99
2022-12-20T09:09:56.807Z,99.99
2022-12-20T09:10:57.506Z,99.99
2022-12-20T09:11:58.024Z,99.99
2022-12-20T09:12:58.238Z,99.99
2022-12-20T09:13:58.218Z,99.99
2022-12-20T09:14:59.193Z,99.99
2022-12-20T09:15:59.850Z,99.99
2022-12-20T09:16:59.885Z,99.99
2022-12-20T09:18:00.153Z,99.99
2022-12-20T09:19:08.005Z,99.99
2022-12-20T09:20:01.248Z,99.99
2022-12-20T09:21:01.925Z,99.99
2022-12-20T09:22:02.880Z,99.99
2022-12-20T09:23:03.161Z,99.99
2022-12-20T09:24:04.129Z,99.99
2022-12-20T09:25:04.648Z,99.99
2022-12-20T09:26:04.773Z,99.99
2022-12-20T09:27:05.372Z,99.99
2022-12-20T09:28:05.589Z,99.99
2022-12-20T09:29:06.143Z,99.4
2022-12-20T09:30:07.048Z,98.97
2022-12-20T09:31:07.407Z,98.5
2022-12-20T09:32:07.987Z,98.5
2022-12-20T09:33:15.699Z,97.83
2022-12-20T09:34:09.664Z,97.64
2022-12-20T09:35:09.882Z,97.36
2022-12-20T09:36:10.810Z,96.98
2022-12-20T09:37:11.589Z,96.79
2022-12-20T09:38:12.415Z,96.89
2022-12-20T09:39:12.918Z,96.69
2022-12-20T09:40:13.144Z,96.26
2022-12-20T09:41:16.527Z,95.32
2022-12-20T09:42:14.492Z,94.27
2022-12-20T09:43:15.161Z,93.79
2022-12-20T09:44:15.786Z,94.37
2022-12-20T09:45:16.776Z,93.79
2022-12-20T09:46:17.819Z,93.79
2022-12-20T09:47:17.409Z,93.7
2022-12-20T09:48:18.410Z,93.13
2022-12-20T09:49:18.692Z,92.84
2022-12-20T09:50:19.356Z,93.41
2022-12-20T09:51:20.520Z,93.23
2022-12-20T09:52:21.024Z,93.04
2022-12-20T09:53:24.233Z,93.23
2022-12-20T09:54:22.167Z,93.32
2022-12-20T09:55:22.435Z,93.23
2022-12-20T09:56:22.963Z,91.99
2022-12-20T09:57:23.995Z,91.7
2022-12-20T09:58:24.238Z,91.61
2022-12-20T09:59:24.540Z,91.99
2022-12-20T10:00:25.295Z,92.18
2022-12-20T10:01:36.446Z,91.7
2022-12-20T10:03:09.237Z,91.8
2022-12-20T10:03:29.250Z,91.99
2022-12-20T10:04:29.939Z,91.51
2022-12-20T10:05:32.981Z,91.22
2022-12-20T10:06:30.337Z,91.03
2022-12-20T10:07:30.680Z,91.27
2022-12-20T10:08:31.642Z,90.66
2022-12-20T10:09:31.868Z,90.94
2022-12-20T10:10:32.383Z,90.94
2022-12-20T10:11:40.862Z,90.84
2022-12-20T10:12:32.976Z,91.03
2022-12-20T10:13:33.970Z,91.42
2022-12-20T10:14:34.532Z,91.51
2022-12-20T10:15:34.925Z,91.42
2022-12-20T10:16:35.783Z,90.94
2022-12-20T10:17:37.982Z,91.22
2022-12-20T10:18:36.930Z,91.03
2022-12-20T10:19:38.164Z,90.75
2022-12-20T10:20:38.433Z,90.94
2022-12-20T10:21:39.389Z,90.28
2022-12-20T10:22:39.632Z,91.03
2022-12-20T10:23:39.890Z,90.84
2022-12-20T10:24:40.818Z,90.75
2022-12-20T10:25:41.770Z,90.84
2022-12-20T10:26:42.170Z,90.47
2022-12-20T10:27:42.326Z,89.75
2022-12-20T10:28:42.738Z,90.61
2022-12-20T10:29:43.503Z,90.51
2022-12-20T10:30:44.457Z,89.94
2022-12-20T10:31:45.006Z,89.94
2022-12-20T10:32:45.573Z,90.13
2022-12-20T10:33:45.807Z,90.51
2022-12-20T10:34:53.642Z,90.13
2022-12-20T10:35:46.682Z,90.51
2022-12-20T10:36:47.187Z,89.84
2022-12-20T10:38:11.771Z,90.22
2022-12-20T10:38:47.838Z,90.51
2022-12-20T10:39:48.068Z,90.51
2022-12-20T10:41:25.622Z,90.89
2022-12-20T10:41:49.861Z,90.89
2022-12-20T10:42:50.084Z,91.46
2022-12-20T10:43:51.387Z,91.17
2022-12-20T10:44:51.659Z,90.61
2022-12-20T10:45:51.914Z,89.37
2022-12-20T10:46:53.084Z,88.32
2022-12-20T10:47:53.646Z,90.42
2022-12-20T10:48:54.901Z,90.99
2022-12-20T10:49:55.921Z,91.08
2022-12-20T10:50:56.474Z,90.32
2022-12-20T10:51:56.936Z,89.84
2022-12-20T10:52:57.958Z,89.37
2022-12-20T10:53:58.494Z,89.51
2022-12-20T10:54:59.002Z,89.41
2022-12-20T10:55:59.648Z,89.61
2022-12-20T10:57:00.596Z,88.46
2022-12-20T10:58:01.481Z,88.84
2022-12-20T10:59:02.516Z,88.84
2022-12-20T11:00:02.950Z,89.51
2022-12-20T11:01:03.200Z,89.98
2022-12-20T11:02:03.847Z,89.89
2022-12-20T11:03:04.902Z,88.84
2022-12-20T11:04:04.716Z,88.75
2022-12-20T11:05:05.484Z,89.98
2022-12-20T11:06:05.772Z,89.98
2022-12-20T11:07:06.280Z,90.46
2022-12-20T11:09:00.500Z,89.94
2022-12-20T11:09:43.127Z,89.7
2022-12-20T11:10:43.298Z,89.22
2022-12-20T11:11:43.557Z,89.61
2022-12-20T11:12:44.100Z,89.03
2022-12-20T11:13:44.776Z,88.75
2022-12-20T11:14:45.728Z,87.98
2022-12-20T11:15:46.116Z,88.84
2022-12-20T11:16:46.489Z,88.84
2022-12-20T11:17:47.332Z,88.56
2022-12-20T11:18:47.687Z,88.84
2022-12-20T11:19:48.368Z,89.51
2022-12-20T11:20:48.635Z,88.75
2022-12-20T11:21:48.875Z,89.22
2022-12-20T11:22:48.834Z,88.84
2022-12-20T11:23:50.082Z,88.75
2022-12-20T11:24:50.747Z,88.75
2022-12-20T11:25:51.122Z,88.27
2022-12-20T11:26:51.501Z,88.37
2022-12-20T11:27:52.720Z,88.93
2022-12-20T11:28:53.514Z,88.27
2022-12-20T11:29:54.815Z,88.75
2022-12-20T11:30:55.086Z,88.93
2022-12-20T11:31:55.367Z,89.13
2022-12-20T11:32:55.938Z,88.93
2022-12-20T11:33:57.191Z,87.89
2022-12-20T11:34:57.424Z,87.79
2022-12-20T11:35:57.974Z,87.7
2022-12-20T11:36:58.363Z,87.51
2022-12-20T11:38:01.351Z,87.41
2022-12-20T11:38:59.634Z,87.23
2022-12-20T11:40:00.340Z,87.41
2022-12-20T11:41:00.877Z,87.7
2022-12-20T11:42:01.860Z,88.18
2022-12-20T11:43:01.785Z,87.98
2022-12-20T11:44:29.424Z,87.51
2022-12-20T11:45:13.681Z,86.84
2022-12-20T11:46:04.654Z,86.84
2022-12-20T11:47:05.475Z,86.36
2022-12-20T11:48:06.045Z,86.55
2022-12-20T11:49:06.398Z,87.23
2022-12-20T11:50:07.103Z,87.13
2022-12-20T11:51:12.172Z,87.03
2022-12-20T11:52:09.030Z,86.84
2022-12-20T11:53:08.979Z,86.27
2022-12-20T11:54:09.937Z,85.99
2022-12-20T11:55:10.197Z,86.27
2022-12-20T11:56:10.736Z,85.51
2022-12-20T11:57:10.984Z,86.08
2022-12-20T11:58:27.065Z,86.55
2022-12-20T11:59:15.134Z,86.65
2022-12-20T12:00:15.449Z,86.36
2022-12-20T12:01:15.757Z,86.65
2022-12-20T12:02:16.639Z,86.36
2022-12-20T12:03:16.492Z,86.84
2022-12-20T12:04:17.138Z,86.18
2022-12-20T12:05:17.436Z,86.65
2022-12-20T12:06:17.786Z,86.84
2022-12-20T12:07:17.757Z,86.46
2022-12-20T12:08:23.580Z,86.55
2022-12-20T12:09:19.101Z,86.84
2022-12-20T12:10:19.667Z,87.89
2022-12-20T12:12:09.532Z,87.23
2022-12-20T12:12:27.298Z,87.51
2022-12-20T12:13:27.717Z,87.7
2022-12-20T12:14:28.992Z,89.61
2022-12-20T12:15:28.959Z,89.41
2022-12-20T12:16:30.134Z,88.84
2022-12-20T12:17:31.131Z,88.93
2022-12-20T12:18:31.672Z,89.41
2022-12-20T12:19:32.646Z,88.65
2022-12-20T12:20:32.716Z,88.08
2022-12-20T12:21:32.975Z,88.18
2022-12-20T12:22:33.220Z,87.89
2022-12-20T12:23:33.185Z,88.18
2022-12-20T12:24:33.561Z,88.93
2022-12-20T12:25:34.783Z,89.03
2022-12-20T12:26:34.761Z,89.13
2022-12-20T12:27:35.956Z,89.7
2022-12-20T12:28:35.928Z,89.41
2022-12-20T12:29:37.090Z,87.89
2022-12-20T12:30:37.766Z,87.23
2022-12-20T12:31:38.475Z,87.7
2022-12-20T12:32:38.859Z,88.08
2022-12-20T12:33:44.255Z,87.36
2022-12-20T12:34:39.984Z,87.46
2022-12-20T12:35:40.990Z,86.6
2022-12-20T12:36:41.555Z,86.79
2022-12-20T12:37:42.679Z,87.27
2022-12-20T12:38:41.990Z,87.74
2022-12-20T12:39:42.973Z,87.17
2022-12-20T12:40:47.492Z,87.07
2022-12-20T12:41:43.824Z,86.79
2022-12-20T12:42:45.136Z,86.88
2022-12-20T12:43:45.070Z,87.36
2022-12-20T12:44:46.326Z,87.55
2022-12-20T12:45:46.487Z,86.69
2022-12-20T12:46:47.097Z,85.55
2022-12-20T12:47:47.357Z,85.17
2022-12-20T12:48:47.868Z,84.5
2022-12-20T12:49:48.646Z,84.98
2022-12-20T12:50:49.008Z,85.27
2022-12-20T12:51:50.300Z,85.08
2022-12-20T12:52:51.291Z,84.74
2022-12-20T12:53:51.935Z,85.02
2022-12-20T12:54:52.432Z,85.12
2022-12-20T12:55:58.265Z,85.41
2022-12-20T12:56:58.875Z,84.83
2022-12-20T12:58:00.166Z,84.55
2022-12-20T12:59:00.675Z,85.02
2022-12-20T13:00:01.024Z,84.74
2022-12-20T13:01:02.076Z,84.55
2022-12-20T13:02:03.165Z,85.78